sensor_id;sensor_type;location;lat;lon;timestamp;P1;durP1;ratioP1;P2;durP2;ratioP2
31786;SDS011;18356;52.380;9.820;2022-07-10T00:01:52;1999.90;;;999.90;;
31786;SDS011;18356;52.380;9.820;2022-07-10T00:04:18;1999.90;;;999.90;;
31786;SDS011;18356;52.380;9.820;2022-07-10T00:06:44;1999.90;;;999.90;;
31786;SDS011;18356;52.380;9.820;2022-07-10T00:09:12;1999.90;;;999.90;;
31786;SDS011;18356;52.380;9.820;2022-07-10T00:11:39;1999.90;;;999.90;;
31786;SDS011;18356;52.380;9.820;2022-07-10T00:14:05;1999.90;;;999.90;;
31786;SDS011;18356;52.380;9.820;2022-07-10T00:16:31;1999.90;;;999.90;;
31786;SDS011;18356;52.380;9.820;2022-07-10T00:18:57;1999.90;;;999.90;;
31786;SDS011;18356;52.380;9.820;2022-07-10T00:21:23;1999.90;;;999.90;;
31786;SDS011;18356;52.380;9.820;2022-07-10T00:23:49;1999.90;;;999.90;;
31786;SDS011;18356;52.380;9.820;2022-07-10T00:26:15;1999.90;;;999.90;;
31786;SDS011;18356;52.380;9.820;2022-07-10T00:28:41;1999.90;;;999.90;;
31786;SDS011;18356;52.380;9.820;2022-07-10T00:31:08;1999.90;;;999.90;;
31786;SDS011;18356;52.380;9.820;2022-07-10T00:33:36;1999.90;;;999.90;;
31786;SDS011;18356;52.380;9.820;2022-07-10T00:36:03;1999.90;;;999.90;;
31786;SDS011;18356;52.380;9.820;2022-07-10T00:38:30;1999.90;;;999.90;;
31786;SDS011;18356;52.380;9.820;2022-07-10T00:40:56;1999.90;;;999.90;;
31786;SDS011;18356;52.380;9.820;2022-07-10T00:43:22;1999.90;;;999.90;;
31786;SDS011;18356;52.380;9.820;2022-07-10T00:45:48;1999.90;;;999.90;;
31786;SDS011;18356;52.380;9.820;2022-07-10T00:48:15;1999.90;;;999.90;;
31786;SDS011;18356;52.380;9.820;2022-07-10T00:50:44;1999.90;;;999.90;;
31786;SDS011;18356;52.380;9.820;2022-07-10T00:53:11;1999.90;;;999.90;;
31786;SDS011;18356;52.380;9.820;2022-07-10T00:55:38;1999.90;;;999.90;;
31786;SDS011;18356;52.380;9.820;2022-07-10T00:58:06;1999.90;;;999.90;;
31786;SDS011;18356;52.380;9.820;2022-07-10T01:00:32;1999.90;;;999.90;;
31786;SDS011;18356;52.380;9.820;2022-07-10T01:02:59;1999.90;;;999.90;;
31786;SDS011;18356;52.380;9.820;2022-07-10T01:05:25;1999.90;;;999.90;;
31786;SDS011;18356;52.380;9.820;2022-07-10T01:07:51;1999.90;;;999.90;;
31786;SDS011;18356;52.380;9.820;2022-07-10T01:10:18;1999.90;;;999.90;;
31786;SDS011;18356;52.380;9.820;2022-07-10T01:12:44;1999.90;;;999.90;;
31786;SDS011;18356;52.380;9.820;2022-07-10T01:15:11;1999.90;;;999.90;;
31786;SDS011;18356;52.380;9.820;2022-07-10T01:17:37;1999.90;;;999.90;;
31786;SDS011;18356;52.380;9.820;2022-07-10T01:20:07;1999.90;;;999.90;;
31786;SDS011;18356;52.380;9.820;2022-07-10T01:22:33;1999.90;;;999.90;;
31786;SDS011;18356;52.380;9.820;2022-07-10T01:24:59;1999.90;;;999.90;;
31786;SDS011;18356;52.380;9.820;2022-07-10T01:27:25;1999.90;;;999.90;;
31786;SDS011;18356;52.380;9.820;2022-07-10T01:29:52;1999.90;;;999.90;;
31786;SDS011;18356;52.380;9.820;2022-07-10T01:32:18;1999.90;;;999.90;;
31786;SDS011;18356;52.380;9.820;2022-07-10T01:34:45;1999.90;;;999.90;;
31786;SDS011;18356;52.380;9.820;2022-07-10T01:37:12;1999.90;;;999.90;;
31786;SDS011;18356;52.380;9.820;2022-07-10T01:39:38;1999.90;;;999.90;;
31786;SDS011;18356;52.380;9.820;2022-07-10T01:42:04;1999.90;;;999.90;;
31786;SDS011;18356;52.380;9.820;2022-07-10T01:44:30;1999.90;;;999.90;;
31786;SDS011;18356;52.380;9.820;2022-07-10T01:46:56;1999.90;;;999.90;;
31786;SDS011;18356;52.380;9.820;2022-07-10T01:49:23;1999.90;;;999.90;;
31786;SDS011;18356;52.380;9.820;2022-07-10T01:51:49;1999.90;;;999.90;;
31786;SDS011;18356;52.380;9.820;2022-07-10T01:54:15;1999.90;;;999.90;;
31786;SDS011;18356;52.380;9.820;2022-07-10T01:56:41;1999.90;;;999.90;;
31786;SDS011;18356;52.380;9.820;2022-07-10T01:59:07;1999.90;;;999.90;;
31786;SDS011;18356;52.380;9.820;2022-07-10T02:01:33;1999.90;;;999.90;;
31786;SDS011;18356;52.380;9.820;2022-07-10T02:03:59;1999.90;;;999.90;;
31786;SDS011;18356;52.380;9.820;2022-07-10T02:06:44;1999.90;;;999.90;;
31786;SDS011;18356;52.380;9.820;2022-07-10T02:09:10;1999.90;;;999.90;;
31786;SDS011;18356;52.380;9.820;2022-07-10T02:11:36;1999.90;;;999.90;;
31786;SDS011;18356;52.380;9.820;2022-07-10T02:14:02;1999.90;;;999.90;;
31786;SDS011;18356;52.380;9.820;2022-07-10T02:16:28;1999.90;;;999.90;;
31786;SDS011;18356;52.380;9.820;2022-07-10T02:18:54;1999.90;;;999.90;;
31786;SDS011;18356;52.380;9.820;2022-07-10T02:21:20;1999.90;;;999.90;;
31786;SDS011;18356;52.380;9.820;2022-07-10T02:23:46;1999.90;;;999.90;;
31786;SDS011;18356;52.380;9.820;2022-07-10T02:26:12;1999.90;;;999.90;;
31786;SDS011;18356;52.380;9.820;2022-07-10T02:28:39;1999.90;;;999.90;;
31786;SDS011;18356;52.380;9.820;2022-07-10T02:31:05;1999.90;;;999.90;;
31786;SDS011;18356;52.380;9.820;2022-07-10T02:33:31;1999.90;;;999.90;;
31786;SDS011;18356;52.380;9.820;2022-07-10T02:35:57;1999.90;;;999.90;;
31786;SDS011;18356;52.380;9.820;2022-07-10T02:38:23;1999.90;;;999.90;;
31786;SDS011;18356;52.380;9.820;2022-07-10T02:40:49;1999.90;;;999.90;;
31786;SDS011;18356;52.380;9.820;2022-07-10T02:43:15;1999.90;;;999.90;;
31786;SDS011;18356;52.380;9.820;2022-07-10T02:45:41;1999.90;;;999.90;;
31786;SDS011;18356;52.380;9.820;2022-07-10T02:48:08;1999.90;;;999.90;;
31786;SDS011;18356;52.380;9.820;2022-07-10T02:50:34;1999.90;;;999.90;;
31786;SDS011;18356;52.380;9.820;2022-07-10T02:53:00;1999.90;;;999.90;;
31786;SDS011;18356;52.380;9.820;2022-07-10T02:55:27;1999.90;;;999.90;;
31786;SDS011;18356;52.380;9.820;2022-07-10T02:57:53;1999.90;;;999.90;;
31786;SDS011;18356;52.380;9.820;2022-07-10T03:00:19;1999.90;;;999.90;;
31786;SDS011;18356;52.380;9.820;2022-07-10T03:02:46;1999.90;;;999.90;;
31786;SDS011;18356;52.380;9.820;2022-07-10T03:05:12;1999.90;;;999.90;;
31786;SDS011;18356;52.380;9.820;2022-07-10T03:07:38;1999.90;;;999.90;;
31786;SDS011;18356;52.380;9.820;2022-07-10T03:10:04;1999.90;;;999.90;;
31786;SDS011;18356;52.380;9.820;2022-07-10T03:12:30;1999.90;;;999.90;;
31786;SDS011;18356;52.380;9.820;2022-07-10T03:14:56;1999.90;;;999.90;;
31786;SDS011;18356;52.380;9.820;2022-07-10T03:17:24;1999.90;;;999.90;;
31786;SDS011;18356;52.380;9.820;2022-07-10T03:19:50;1999.90;;;999.90;;
31786;SDS011;18356;52.380;9.820;2022-07-10T03:22:16;1999.90;;;999.90;;
31786;SDS011;18356;52.380;9.820;2022-07-10T03:24:42;1999.90;;;999.90;;
31786;SDS011;18356;52.380;9.820;2022-07-10T03:27:11;1999.90;;;999.90;;
31786;SDS011;18356;52.380;9.820;2022-07-10T03:29:38;1999.90;;;999.90;;
31786;SDS011;18356;52.380;9.820;2022-07-10T03:32:04;1999.90;;;999.90;;
31786;SDS011;18356;52.380;9.820;2022-07-10T03:34:30;1999.90;;;999.90;;
31786;SDS011;18356;52.380;9.820;2022-07-10T03:36:59;1999.90;;;999.90;;
31786;SDS011;18356;52.380;9.820;2022-07-10T03:39:28;1999.90;;;999.90;;
31786;SDS011;18356;52.380;9.820;2022-07-10T03:41:54;1999.90;;;999.90;;
31786;SDS011;18356;52.380;9.820;2022-07-10T03:44:20;1999.90;;;999.90;;
31786;SDS011;18356;52.380;9.820;2022-07-10T03:46:46;1999.90;;;999.90;;
31786;SDS011;18356;52.380;9.820;2022-07-10T03:49:12;1999.90;;;999.90;;
31786;SDS011;18356;52.380;9.820;2022-07-10T03:51:38;1999.90;;;999.90;;
31786;SDS011;18356;52.380;9.820;2022-07-10T03:54:04;1999.90;;;999.90;;
31786;SDS011;18356;52.380;9.820;2022-07-10T03:56:30;1999.90;;;999.90;;
31786;SDS011;18356;52.380;9.820;2022-07-10T03:59:15;1999.90;;;999.90;;
31786;SDS011;18356;52.380;9.820;2022-07-10T04:01:41;1999.90;;;999.90;;
31786;SDS011;18356;52.380;9.820;2022-07-10T04:04:07;1999.90;;;999.90;;
31786;SDS011;18356;52.380;9.820;2022-07-10T04:06:33;1999.90;;;999.90;;
31786;SDS011;18356;52.380;9.820;2022-07-10T04:09:03;1999.90;;;999.90;;
31786;SDS011;18356;52.380;9.820;2022-07-10T04:11:29;1999.90;;;999.90;;
31786;SDS011;18356;52.380;9.820;2022-07-10T04:13:55;1999.90;;;999.90;;
31786;SDS011;18356;52.380;9.820;2022-07-10T04:16:22;1999.90;;;999.90;;
31786;SDS011;18356;52.380;9.820;2022-07-10T04:18:48;1999.90;;;999.90;;
31786;SDS011;18356;52.380;9.820;2022-07-10T04:21:14;1999.90;;;999.90;;
31786;SDS011;18356;52.380;9.820;2022-07-10T04:23:41;1999.90;;;999.90;;
31786;SDS011;18356;52.380;9.820;2022-07-10T04:26:07;1999.90;;;999.90;;
31786;SDS011;18356;52.380;9.820;2022-07-10T04:28:33;1999.90;;;999.90;;
31786;SDS011;18356;52.380;9.820;2022-07-10T04:30:59;1999.90;;;999.90;;
31786;SDS011;18356;52.380;9.820;2022-07-10T04:33:25;1999.90;;;999.90;;
31786;SDS011;18356;52.380;9.820;2022-07-10T04:35:52;1999.90;;;999.90;;
31786;SDS011;18356;52.380;9.820;2022-07-10T04:38:18;1999.90;;;999.90;;
31786;SDS011;18356;52.380;9.820;2022-07-10T04:40:44;1999.90;;;999.90;;
31786;SDS011;18356;52.380;9.820;2022-07-10T04:43:10;1999.90;;;999.90;;
31786;SDS011;18356;52.380;9.820;2022-07-10T04:45:36;1999.90;;;999.90;;
31786;SDS011;18356;52.380;9.820;2022-07-10T04:48:05;1999.90;;;999.90;;
31786;SDS011;18356;52.380;9.820;2022-07-10T04:50:32;1999.90;;;999.90;;
31786;SDS011;18356;52.380;9.820;2022-07-10T04:52:58;1999.90;;;999.90;;
31786;SDS011;18356;52.380;9.820;2022-07-10T04:55:24;1999.90;;;999.90;;
31786;SDS011;18356;52.380;9.820;2022-07-10T04:57:50;1999.90;;;999.90;;
31786;SDS011;18356;52.380;9.820;2022-07-10T05:00:16;1999.90;;;999.90;;
31786;SDS011;18356;52.380;9.820;2022-07-10T05:02:42;1999.90;;;999.90;;
31786;SDS011;18356;52.380;9.820;2022-07-10T05:05:09;1999.90;;;999.90;;
31786;SDS011;18356;52.380;9.820;2022-07-10T05:07:35;1999.90;;;999.90;;
31786;SDS011;18356;52.380;9.820;2022-07-10T05:10:01;1999.90;;;999.90;;
31786;SDS011;18356;52.380;9.820;2022-07-10T05:12:27;1999.90;;;999.90;;
31786;SDS011;18356;52.380;9.820;2022-07-10T05:14:53;1999.90;;;999.90;;
31786;SDS011;18356;52.380;9.820;2022-07-10T05:17:19;1999.90;;;999.90;;
31786;SDS011;18356;52.380;9.820;2022-07-10T05:19:45;1999.90;;;999.90;;
31786;SDS011;18356;52.380;9.820;2022-07-10T05:22:11;1999.90;;;999.90;;
31786;SDS011;18356;52.380;9.820;2022-07-10T05:24:37;1999.90;;;999.90;;
31786;SDS011;18356;52.380;9.820;2022-07-10T05:27:04;1999.90;;;999.90;;
31786;SDS011;18356;52.380;9.820;2022-07-10T05:29:30;1999.90;;;999.90;;
31786;SDS011;18356;52.380;9.820;2022-07-10T05:31:56;1999.90;;;999.90;;
31786;SDS011;18356;52.380;9.820;2022-07-10T05:34:22;1999.90;;;999.90;;
31786;SDS011;18356;52.380;9.820;2022-07-10T05:36:48;1999.90;;;999.90;;
31786;SDS011;18356;52.380;9.820;2022-07-10T05:39:15;1999.90;;;999.90;;
31786;SDS011;18356;52.380;9.820;2022-07-10T05:41:41;1999.90;;;999.90;;
31786;SDS011;18356;52.380;9.820;2022-07-10T05:44:07;1999.90;;;999.90;;
31786;SDS011;18356;52.380;9.820;2022-07-10T05:46:33;1999.90;;;999.90;;
31786;SDS011;18356;52.380;9.820;2022-07-10T05:48:59;1999.90;;;999.90;;
31786;SDS011;18356;52.380;9.820;2022-07-10T05:51:26;1999.90;;;999.90;;
31786;SDS011;18356;52.380;9.820;2022-07-10T05:53:52;1999.90;;;999.90;;
31786;SDS011;18356;52.380;9.820;2022-07-10T05:56:18;1999.90;;;999.90;;
31786;SDS011;18356;52.380;9.820;2022-07-10T05:58:44;1999.90;;;999.90;;
31786;SDS011;18356;52.380;9.820;2022-07-10T06:01:10;1999.90;;;999.90;;
31786;SDS011;18356;52.380;9.820;2022-07-10T06:03:36;1999.90;;;999.90;;
31786;SDS011;18356;52.380;9.820;2022-07-10T06:06:02;1999.90;;;999.90;;
31786;SDS011;18356;52.380;9.820;2022-07-10T06:08:28;1999.90;;;999.90;;
31786;SDS011;18356;52.380;9.820;2022-07-10T06:10:55;1999.90;;;999.90;;
31786;SDS011;18356;52.380;9.820;2022-07-10T06:13:21;1999.90;;;999.90;;
31786;SDS011;18356;52.380;9.820;2022-07-10T06:15:47;1999.90;;;999.90;;
31786;SDS011;18356;52.380;9.820;2022-07-10T06:18:13;1999.90;;;999.90;;
31786;SDS011;18356;52.380;9.820;2022-07-10T06:20:39;1999.90;;;999.90;;
31786;SDS011;18356;52.380;9.820;2022-07-10T06:23:05;1999.90;;;999.90;;
31786;SDS011;18356;52.380;9.820;2022-07-10T06:25:31;1999.90;;;999.90;;
31786;SDS011;18356;52.380;9.820;2022-07-10T06:27:57;1999.90;;;999.90;;
31786;SDS011;18356;52.380;9.820;2022-07-10T06:30:23;1999.90;;;999.90;;
31786;SDS011;18356;52.380;9.820;2022-07-10T06:32:50;1999.90;;;999.90;;
31786;SDS011;18356;52.380;9.820;2022-07-10T06:35:16;1999.90;;;999.90;;
31786;SDS011;18356;52.380;9.820;2022-07-10T06:37:42;1999.90;;;999.90;;
31786;SDS011;18356;52.380;9.820;2022-07-10T06:40:09;1999.90;;;999.90;;
31786;SDS011;18356;52.380;9.820;2022-07-10T06:42:37;1999.90;;;999.90;;
31786;SDS011;18356;52.380;9.820;2022-07-10T06:45:03;1999.90;;;999.90;;
31786;SDS011;18356;52.380;9.820;2022-07-10T06:47:30;1999.90;;;999.90;;
31786;SDS011;18356;52.380;9.820;2022-07-10T06:50:14;1999.90;;;999.90;;
31786;SDS011;18356;52.380;9.820;2022-07-10T06:52:40;1999.90;;;999.90;;
31786;SDS011;18356;52.380;9.820;2022-07-10T06:55:06;1999.90;;;999.90;;
31786;SDS011;18356;52.380;9.820;2022-07-10T06:57:33;1999.90;;;999.90;;
31786;SDS011;18356;52.380;9.820;2022-07-10T06:59:59;1999.90;;;999.90;;
31786;SDS011;18356;52.380;9.820;2022-07-10T07:02:25;1999.90;;;999.90;;
31786;SDS011;18356;52.380;9.820;2022-07-10T07:04:51;1999.90;;;999.90;;
31786;SDS011;18356;52.380;9.820;2022-07-10T07:07:17;1999.90;;;999.90;;
31786;SDS011;18356;52.380;9.820;2022-07-10T07:09:43;1999.90;;;999.90;;
31786;SDS011;18356;52.380;9.820;2022-07-10T07:12:10;1999.90;;;999.90;;
31786;SDS011;18356;52.380;9.820;2022-07-10T07:14:36;1999.90;;;999.90;;
31786;SDS011;18356;52.380;9.820;2022-07-10T07:17:04;1999.90;;;999.90;;
31786;SDS011;18356;52.380;9.820;2022-07-10T07:19:35;1999.90;;;999.90;;
31786;SDS011;18356;52.380;9.820;2022-07-10T07:22:20;1999.90;;;999.90;;
31786;SDS011;18356;52.380;9.820;2022-07-10T07:25:05;1999.90;;;999.90;;
31786;SDS011;18356;52.380;9.820;2022-07-10T07:27:32;1999.90;;;999.90;;
31786;SDS011;18356;52.380;9.820;2022-07-10T07:30:17;1999.90;;;999.90;;
31786;SDS011;18356;52.380;9.820;2022-07-10T07:32:43;1999.90;;;999.90;;
31786;SDS011;18356;52.380;9.820;2022-07-10T07:35:10;1999.90;;;999.90;;
31786;SDS011;18356;52.380;9.820;2022-07-10T07:37:44;1999.90;;;999.90;;
31786;SDS011;18356;52.380;9.820;2022-07-10T07:40:12;1999.90;;;999.90;;
31786;SDS011;18356;52.380;9.820;2022-07-10T07:42:38;1999.90;;;999.90;;
31786;SDS011;18356;52.380;9.820;2022-07-10T07:45:06;1999.90;;;999.90;;
31786;SDS011;18356;52.380;9.820;2022-07-10T07:47:42;1999.90;;;999.90;;
31786;SDS011;18356;52.380;9.820;2022-07-10T07:50:10;1999.90;;;999.90;;
31786;SDS011;18356;52.380;9.820;2022-07-10T07:52:36;1999.90;;;999.90;;
31786;SDS011;18356;52.380;9.820;2022-07-10T07:55:02;1999.90;;;999.90;;
31786;SDS011;18356;52.380;9.820;2022-07-10T07:57:28;1999.90;;;999.90;;
31786;SDS011;18356;52.380;9.820;2022-07-10T07:59:54;1999.90;;;999.90;;
31786;SDS011;18356;52.380;9.820;2022-07-10T08:02:20;1999.90;;;999.90;;
31786;SDS011;18356;52.380;9.820;2022-07-10T08:04:47;1999.90;;;999.90;;
31786;SDS011;18356;52.380;9.820;2022-07-10T08:07:13;1999.90;;;999.90;;
31786;SDS011;18356;52.380;9.820;2022-07-10T08:09:39;1999.90;;;999.90;;
31786;SDS011;18356;52.380;9.820;2022-07-10T08:12:05;1999.90;;;999.90;;
31786;SDS011;18356;52.380;9.820;2022-07-10T08:14:31;1999.90;;;999.90;;
31786;SDS011;18356;52.380;9.820;2022-07-10T08:16:58;1999.90;;;999.90;;
31786;SDS011;18356;52.380;9.820;2022-07-10T08:19:25;1999.90;;;999.90;;
31786;SDS011;18356;52.380;9.820;2022-07-10T08:21:51;1999.90;;;999.90;;
31786;SDS011;18356;52.380;9.820;2022-07-10T08:24:17;1999.90;;;999.90;;
31786;SDS011;18356;52.380;9.820;2022-07-10T08:26:43;1999.90;;;999.90;;
31786;SDS011;18356;52.380;9.820;2022-07-10T08:29:10;1999.90;;;999.90;;
31786;SDS011;18356;52.380;9.820;2022-07-10T08:31:36;1999.90;;;999.90;;
31786;SDS011;18356;52.380;9.820;2022-07-10T08:34:02;1999.90;;;999.90;;
31786;SDS011;18356;52.380;9.820;2022-07-10T08:36:28;1999.90;;;999.90;;
31786;SDS011;18356;52.380;9.820;2022-07-10T08:38:54;1999.90;;;999.90;;
31786;SDS011;18356;52.380;9.820;2022-07-10T08:41:24;1999.90;;;999.90;;
31786;SDS011;18356;52.380;9.820;2022-07-10T08:43:51;1999.90;;;999.90;;
31786;SDS011;18356;52.380;9.820;2022-07-10T08:46:18;1999.90;;;999.90;;
31786;SDS011;18356;52.380;9.820;2022-07-10T08:48:48;1999.90;;;999.90;;
31786;SDS011;18356;52.380;9.820;2022-07-10T08:51:24;1999.90;;;999.90;;
31786;SDS011;18356;52.380;9.820;2022-07-10T08:53:51;1999.90;;;999.90;;
31786;SDS011;18356;52.380;9.820;2022-07-10T08:56:17;1999.90;;;999.90;;
31786;SDS011;18356;52.380;9.820;2022-07-10T08:58:43;1999.90;;;999.90;;
31786;SDS011;18356;52.380;9.820;2022-07-10T09:01:10;1999.90;;;999.90;;
31786;SDS011;18356;52.380;9.820;2022-07-10T09:03:36;1999.90;;;999.90;;
31786;SDS011;18356;52.380;9.820;2022-07-10T09:06:04;1999.90;;;999.90;;
31786;SDS011;18356;52.380;9.820;2022-07-10T09:08:30;1999.90;;;999.90;;
31786;SDS011;18356;52.380;9.820;2022-07-10T09:11:14;1999.90;;;999.90;;
31786;SDS011;18356;52.380;9.820;2022-07-10T09:13:53;1999.90;;;999.90;;
31786;SDS011;18356;52.380;9.820;2022-07-10T09:16:23;1999.90;;;999.90;;
31786;SDS011;18356;52.380;9.820;2022-07-10T09:18:49;1999.90;;;999.90;;
31786;SDS011;18356;52.380;9.820;2022-07-10T09:21:15;1999.90;;;999.90;;
31786;SDS011;18356;52.380;9.820;2022-07-10T09:23:42;1999.90;;;999.90;;
31786;SDS011;18356;52.380;9.820;2022-07-10T09:26:08;1999.90;;;999.90;;
31786;SDS011;18356;52.380;9.820;2022-07-10T09:28:34;1999.90;;;999.90;;
31786;SDS011;18356;52.380;9.820;2022-07-10T09:31:00;1999.90;;;999.90;;
31786;SDS011;18356;52.380;9.820;2022-07-10T09:33:27;1999.90;;;999.90;;
31786;SDS011;18356;52.380;9.820;2022-07-10T09:36:00;1999.90;;;999.90;;
31786;SDS011;18356;52.380;9.820;2022-07-10T09:41:15;1999.90;;;999.90;;
31786;SDS011;18356;52.380;9.820;2022-07-10T09:46:14;1999.90;;;999.90;;
31786;SDS011;18356;52.380;9.820;2022-07-10T09:48:41;1999.90;;;999.90;;
31786;SDS011;18356;52.380;9.820;2022-07-10T09:51:08;1999.90;;;999.90;;
31786;SDS011;18356;52.380;9.820;2022-07-10T09:53:37;1999.90;;;999.90;;
31786;SDS011;18356;52.380;9.820;2022-07-10T09:56:04;1999.90;;;999.90;;
31786;SDS011;18356;52.380;9.820;2022-07-10T09:58:32;1999.90;;;999.90;;
31786;SDS011;18356;52.380;9.820;2022-07-10T10:01:01;1999.90;;;999.90;;
31786;SDS011;18356;52.380;9.820;2022-07-10T10:03:28;1999.90;;;999.90;;
31786;SDS011;18356;52.380;9.820;2022-07-10T10:05:58;1999.90;;;999.90;;
31786;SDS011;18356;52.380;9.820;2022-07-10T10:11:26;1999.90;;;999.90;;
31786;SDS011;18356;52.380;9.820;2022-07-10T10:13:53;1999.90;;;999.90;;
31786;SDS011;18356;52.380;9.820;2022-07-10T10:16:19;1999.90;;;999.90;;
31786;SDS011;18356;52.380;9.820;2022-07-10T10:18:46;1999.90;;;999.90;;
31786;SDS011;18356;52.380;9.820;2022-07-10T10:21:31;1999.90;;;999.90;;
31786;SDS011;18356;52.380;9.820;2022-07-10T10:24:00;1999.90;;;999.90;;
31786;SDS011;18356;52.380;9.820;2022-07-10T10:26:27;1999.90;;;999.90;;
31786;SDS011;18356;52.380;9.820;2022-07-10T10:28:54;1999.90;;;999.90;;
31786;SDS011;18356;52.380;9.820;2022-07-10T10:31:22;1999.90;;;999.90;;
31786;SDS011;18356;52.380;9.820;2022-07-10T10:33:48;1999.90;;;999.90;;
31786;SDS011;18356;52.380;9.820;2022-07-10T10:36:50;1999.90;;;999.90;;
31786;SDS011;18356;52.380;9.820;2022-07-10T10:39:16;1999.90;;;999.90;;
31786;SDS011;18356;52.380;9.820;2022-07-10T10:41:53;1999.90;;;999.90;;
31786;SDS011;18356;52.380;9.820;2022-07-10T10:44:22;1999.90;;;999.90;;
31786;SDS011;18356;52.380;9.820;2022-07-10T10:46:59;1999.90;;;999.90;;
31786;SDS011;18356;52.380;9.820;2022-07-10T10:49:47;1999.90;;;999.90;;
31786;SDS011;18356;52.380;9.820;2022-07-10T10:52:14;1999.90;;;999.90;;
31786;SDS011;18356;52.380;9.820;2022-07-10T10:57:44;1999.90;;;999.90;;
31786;SDS011;18356;52.380;9.820;2022-07-10T11:00:28;1999.90;;;999.90;;
31786;SDS011;18356;52.380;9.820;2022-07-10T11:05:41;1999.90;;;999.90;;
31786;SDS011;18356;52.380;9.820;2022-07-10T11:08:08;1999.90;;;999.90;;
31786;SDS011;18356;52.380;9.820;2022-07-10T11:10:36;1999.90;;;999.90;;
31786;SDS011;18356;52.380;9.820;2022-07-10T11:13:13;1999.90;;;999.90;;
31786;SDS011;18356;52.380;9.820;2022-07-10T11:15:40;1999.90;;;999.90;;
31786;SDS011;18356;52.380;9.820;2022-07-10T11:18:10;1999.90;;;999.90;;
31786;SDS011;18356;52.380;9.820;2022-07-10T11:20:40;1999.90;;;999.90;;
31786;SDS011;18356;52.380;9.820;2022-07-10T11:25:52;1999.90;;;999.90;;
31786;SDS011;18356;52.380;9.820;2022-07-10T11:28:54;1999.90;;;999.90;;
31786;SDS011;18356;52.380;9.820;2022-07-10T11:31:24;1999.90;;;999.90;;
31786;SDS011;18356;52.380;9.820;2022-07-10T11:33:51;1999.90;;;999.90;;
31786;SDS011;18356;52.380;9.820;2022-07-10T11:36:18;1999.90;;;999.90;;
31786;SDS011;18356;52.380;9.820;2022-07-10T11:38:46;1999.90;;;999.90;;
31786;SDS011;18356;52.380;9.820;2022-07-10T11:43:46;1999.90;;;999.90;;
31786;SDS011;18356;52.380;9.820;2022-07-10T11:46:12;1999.90;;;999.90;;
31786;SDS011;18356;52.380;9.820;2022-07-10T11:48:39;1999.90;;;999.90;;
31786;SDS011;18356;52.380;9.820;2022-07-10T11:51:50;1999.90;;;999.90;;
31786;SDS011;18356;52.380;9.820;2022-07-10T11:53:55;1999.90;;;999.90;;
31786;SDS011;18356;52.380;9.820;2022-07-10T11:56:22;1999.90;;;999.90;;
31786;SDS011;18356;52.380;9.820;2022-07-10T11:58:55;1999.90;;;999.90;;
31786;SDS011;18356;52.380;9.820;2022-07-10T12:01:21;1999.90;;;999.90;;
31786;SDS011;18356;52.380;9.820;2022-07-10T12:03:54;1999.90;;;999.90;;
31786;SDS011;18356;52.380;9.820;2022-07-10T12:06:21;1999.90;;;999.90;;
31786;SDS011;18356;52.380;9.820;2022-07-10T12:08:48;1999.90;;;999.90;;
31786;SDS011;18356;52.380;9.820;2022-07-10T12:11:15;1999.90;;;999.90;;
31786;SDS011;18356;52.380;9.820;2022-07-10T12:13:41;1999.90;;;999.90;;
31786;SDS011;18356;52.380;9.820;2022-07-10T12:16:08;1999.90;;;999.90;;
31786;SDS011;18356;52.380;9.820;2022-07-10T12:18:34;1999.90;;;999.90;;
31786;SDS011;18356;52.380;9.820;2022-07-10T12:21:00;1999.90;;;999.90;;
31786;SDS011;18356;52.380;9.820;2022-07-10T12:23:27;1999.90;;;999.90;;
31786;SDS011;18356;52.380;9.820;2022-07-10T12:25:54;1999.90;;;999.90;;
31786;SDS011;18356;52.380;9.820;2022-07-10T14:03:07;1999.90;;;999.90;;
31786;SDS011;18356;52.380;9.820;2022-07-10T14:05:34;1999.90;;;999.90;;
31786;SDS011;18356;52.380;9.820;2022-07-10T14:08:00;1999.90;;;999.90;;
31786;SDS011;18356;52.380;9.820;2022-07-10T14:11:45;1999.90;;;999.90;;
31786;SDS011;18356;52.380;9.820;2022-07-10T14:14:11;1999.90;;;999.90;;
31786;SDS011;18356;52.380;9.820;2022-07-10T14:16:37;1999.90;;;999.90;;
31786;SDS011;18356;52.380;9.820;2022-07-10T14:19:03;1999.90;;;999.90;;
31786;SDS011;18356;52.380;9.820;2022-07-10T14:21:30;1999.90;;;999.90;;
31786;SDS011;18356;52.380;9.820;2022-07-10T14:23:56;707.05;;;50.17;;
31786;SDS011;18356;52.380;9.820;2022-07-10T14:27:14;8.60;;;1.50;;
31786;SDS011;18356;52.380;9.820;2022-07-10T14:29:40;8.80;;;1.52;;
31786;SDS011;18356;52.380;9.820;2022-07-10T14:32:07;5.90;;;1.35;;
31786;SDS011;18356;52.380;9.820;2022-07-10T14:34:33;6.68;;;1.55;;
31786;SDS011;18356;52.380;9.820;2022-07-10T14:36:59;11.10;;;1.73;;
31786;SDS011;18356;52.380;9.820;2022-07-10T14:39:25;7.38;;;1.48;;
31786;SDS011;18356;52.380;9.820;2022-07-10T14:41:51;7.00;;;1.27;;
31786;SDS011;18356;52.380;9.820;2022-07-10T14:44:17;7.10;;;1.40;;
31786;SDS011;18356;52.380;9.820;2022-07-10T14:46:43;9.25;;;1.48;;
31786;SDS011;18356;52.380;9.820;2022-07-10T14:49:09;6.00;;;1.33;;
31786;SDS011;18356;52.380;9.820;2022-07-10T14:51:36;6.20;;;1.52;;
31786;SDS011;18356;52.380;9.820;2022-07-10T14:54:02;8.95;;;1.27;;
31786;SDS011;18356;52.380;9.820;2022-07-10T14:56:29;8.85;;;1.23;;
31786;SDS011;18356;52.380;9.820;2022-07-10T14:58:55;7.32;;;1.65;;
31786;SDS011;18356;52.380;9.820;2022-07-10T15:01:21;7.07;;;1.63;;
31786;SDS011;18356;52.380;9.820;2022-07-10T15:03:47;8.10;;;1.30;;
31786;SDS011;18356;52.380;9.820;2022-07-10T15:06:13;7.47;;;1.30;;
31786;SDS011;18356;52.380;9.820;2022-07-10T15:08:39;5.25;;;0.85;;
31786;SDS011;18356;52.380;9.820;2022-07-10T15:11:05;5.85;;;1.33;;
31786;SDS011;18356;52.380;9.820;2022-07-10T15:13:32;5.40;;;0.98;;
31786;SDS011;18356;52.380;9.820;2022-07-10T15:15:58;4.15;;;1.48;;
31786;SDS011;18356;52.380;9.820;2022-07-10T15:18:25;3.05;;;0.77;;
31786;SDS011;18356;52.380;9.820;2022-07-10T15:20:51;4.80;;;0.70;;
31786;SDS011;18356;52.380;9.820;2022-07-10T15:23:17;5.53;;;0.70;;
31786;SDS011;18356;52.380;9.820;2022-07-10T15:25:44;7.60;;;0.80;;
31786;SDS011;18356;52.380;9.820;2022-07-10T15:28:10;4.90;;;0.90;;
31786;SDS011;18356;52.380;9.820;2022-07-10T15:30:37;4.40;;;1.05;;
31786;SDS011;18356;52.380;9.820;2022-07-10T15:33:03;5.03;;;0.85;;
31786;SDS011;18356;52.380;9.820;2022-07-10T15:35:30;3.72;;;0.75;;
31786;SDS011;18356;52.380;9.820;2022-07-10T15:37:56;2.90;;;0.65;;
31786;SDS011;18356;52.380;9.820;2022-07-10T15:40:24;5.72;;;0.80;;
31786;SDS011;18356;52.380;9.820;2022-07-10T15:42:50;3.95;;;0.80;;
31786;SDS011;18356;52.380;9.820;2022-07-10T15:45:17;5.30;;;1.00;;
31786;SDS011;18356;52.380;9.820;2022-07-10T15:47:43;7.28;;;0.93;;
31786;SDS011;18356;52.380;9.820;2022-07-10T15:50:10;4.82;;;0.80;;